Time;durP1;ratioP1;P1;durP2;ratioP2;P2;SDS_P1;SDS_P2;PMS_P1;PMS_P2;Temp;Humidity;BMP_temperature;BMP_pressure;BME280_temperature;BME280_humidity;BME280_pressure;Samples;Min_cycle;Max_cycle;Signal;HPM_P1;HPM_P2
2022/07/07 00:00:42;;;;;;;5.03;2.40;;;;;;;16.17;86.88;101387.28;5054355;22;20485;-45
2022/07/07 00:03:10;;;;;;;2.67;2.43;;;;;;;16.17;87.21;101383.78;5011104;28;20457;-49
2022/07/07 00:05:40;;;;;;;2.67;2.43;;;;;;;16.18;87.17;101375.50;5011892;28;20431;-48
2022/07/07 00:08:08;;;;;;;4.53;2.40;;;;;;;16.20;87.71;101376.09;5012405;28;20437;-45
2022/07/07 00:10:35;;;;;;;2.23;2.13;;;;;;;16.19;87.45;101371.75;5012071;28;20460;-46
2022/07/07 00:13:03;;;;;;;2.23;1.87;;;;;;;16.23;87.54;101367.59;5011227;28;20461;-46
2022/07/07 00:15:31;;;;;;;7.63;2.67;;;;;;;16.24;87.67;101360.34;5011809;28;20437;-48
2022/07/07 00:17:58;;;;;;;4.10;2.60;;;;;;;16.24;87.81;101358.47;5011809;28;20443;-48
2022/07/07 00:20:26;;;;;;;4.10;2.60;;;;;;;16.25;87.83;101357.41;5011703;28;20432;-48
2022/07/07 00:22:55;;;;;;;4.77;2.50;;;;;;;16.25;87.75;101351.19;5011151;28;20484;-46
2022/07/07 00:25:23;;;;;;;3.53;2.80;;;;;;;16.25;87.88;101351.19;5011918;28;20429;-46
2022/07/07 00:27:51;;;;;;;4.77;3.23;;;;;;;16.27;87.88;101343.75;5011738;28;20875;-44
2022/07/07 00:30:18;;;;;;;4.80;2.97;;;;;;;16.27;87.52;101339.19;5011761;28;20991;-49
2022/07/07 00:32:46;;;;;;;6.50;3.60;;;;;;;16.27;88.07;101341.06;5018877;28;20467;-47
2022/07/07 00:35:14;;;;;;;4.40;4.00;;;;;;;16.27;88.05;101338.38;5024533;28;20442;-48
2022/07/07 00:37:41;;;;;;;9.33;4.13;;;;;;;16.28;88.82;101334.63;5031462;28;20499;-48
2022/07/07 00:40:11;;;;;;;6.80;3.90;;;;;;;16.27;88.41;101327.59;5033717;28;20860;-48
2022/07/07 00:42:39;;;;;;;4.80;3.70;;;;;;;16.31;88.21;101335.00;5034713;28;20470;-47
2022/07/07 00:45:08;;;;;;;12.60;4.50;;;;;;;16.32;88.32;101325.91;5035403;28;20428;-46
2022/07/07 00:47:36;;;;;;;4.47;4.00;;;;;;;16.32;88.70;101319.69;5035437;28;20432;-47
2022/07/07 00:50:04;;;;;;;5.57;3.57;;;;;;;16.34;88.36;101317.59;5035431;28;20774;-45
2022/07/07 00:52:32;;;;;;;4.60;3.90;;;;;;;16.31;87.83;101318.03;5034576;28;20467;-46
2022/07/07 00:55:02;;;;;;;5.23;4.30;;;;;;;16.31;87.35;101315.34;5035259;28;20477;-47
2022/07/07 00:57:32;;;;;;;7.20;4.83;;;;;;;16.31;86.90;101307.25;5035154;28;20471;-47
2022/07/07 01:00:04;;;;;;;6.77;4.67;;;;;;;16.32;86.88;101300.84;5035045;28;20434;-49
2022/07/07 01:02:32;;;;;;;5.90;4.10;;;;;;;16.31;86.08;101305.41;5034196;28;20555;-49
2022/07/07 01:05:04;;;;;;;17.27;5.20;;;;;;;16.28;85.70;101291.56;5035202;28;20427;-46
2022/07/07 01:07:32;;;;;;;10.53;4.57;;;;;;;16.32;85.28;101295.47;5035119;28;20436;-46
2022/07/07 01:10:01;;;;;;;9.63;4.77;;;;;;;16.29;86.13;101294.03;5034972;28;20432;-47
2022/07/07 01:12:35;;;;;;;8.83;5.07;;;;;;;16.30;86.05;101286.81;5034100;28;20467;-47
2022/07/07 01:15:04;;;;;;;7.63;4.27;;;;;;;16.32;86.36;101282.00;5035181;28;20431;-46
2022/07/07 01:17:31;;;;;;;9.77;5.30;;;;;;;16.31;86.93;101280.34;5034967;28;20519;-49
2022/07/07 01:20:00;;;;;;;10.83;5.20;;;;;;;16.32;87.04;101282.00;5035061;28;20486;-48
2022/07/07 01:22:30;;;;;;;12.20;5.67;;;;;;;16.34;86.74;101277.22;5034118;28;20490;-48
2022/07/07 01:25:00;;;;;;;11.93;5.77;;;;;;;16.35;87.06;101277.00;5034706;28;20434;-47
2022/07/07 01:27:28;;;;;;;7.80;5.40;;;;;;;16.35;87.14;101268.09;5034911;28;20432;-47
2022/07/07 01:29:58;;;;;;;6.57;5.13;;;;;;;16.32;87.72;101265.84;5034740;28;20436;-47
2022/07/07 01:32:27;;;;;;;10.70;5.63;;;;;;;16.34;86.98;101267.28;5032071;28;20460;-46
2022/07/07 01:34:55;;;;;;;7.67;5.43;;;;;;;16.36;87.38;101269.75;5026283;28;21021;-46
2022/07/07 01:37:24;;;;;;;11.80;5.93;;;;;;;16.38;87.43;101271.19;5034337;28;20471;-48
2022/07/07 01:39:53;;;;;;;6.63;4.77;;;;;;;16.37;87.39;101263.31;5034741;28;20459;-51
2022/07/07 01:42:22;;;;;;;6.00;4.67;;;;;;;16.39;87.39;101254.00;5033855;28;20467;-48
2022/07/07 01:44:51;;;;;;;7.27;5.10;;;;;;;16.42;87.81;101250.03;5034523;28;20438;-48
2022/07/07 01:47:23;;;;;;;12.63;5.77;;;;;;;16.41;88.70;101251.91;5034461;28;21075;-48
2022/07/07 01:49:51;;;;;;;13.10;5.00;;;;;;;16.43;88.72;101251.66;5034214;28;20433;-48
2022/07/07 01:52:18;;;;;;;10.83;4.50;;;;;;;16.41;89.05;101245.69;5032810;28;20865;-50
2022/07/07 01:54:47;;;;;;;6.07;4.33;;;;;;;16.39;89.41;101250.47;5034280;28;20519;-46
2022/07/07 01:57:15;;;;;;;8.87;4.50;;;;;;;16.40;89.81;101246.72;5034247;28;20476;-46
2022/07/07 01:59:44;;;;;;;13.97;4.97;;;;;;;16.37;90.14;101245.31;5034053;28;20428;-50
2022/07/07 02:02:13;;;;;;;9.37;4.10;;;;;;;16.36;90.41;101235.59;5033138;28;20466;-48
2022/07/07 02:04:41;;;;;;;8.30;4.20;;;;;;;16.35;90.55;101243.88;5033862;28;20949;-47
2022/07/07 02:07:09;;;;;;;8.23;3.50;;;;;;;16.35;91.02;101238.50;5033808;28;20439;-50
2022/07/07 02:09:36;;;;;;;7.10;3.37;;;;;;;16.35;90.84;101235.81;5024534;28;20456;-49
2022/07/07 02:12:05;;;;;;;5.43;3.90;;;;;;;16.34;91.23;101237.66;5010761;28;20479;-46
2022/07/07 02:14:33;;;;;;;7.20;4.03;;;;;;;16.32;91.60;101234.38;5011417;28;20869;-47
2022/07/07 02:17:01;;;;;;;4.60;3.30;;;;;;;16.34;91.12;101236.84;5013434;28;20476;-46
2022/07/07 02:19:29;;;;;;;6.73;3.70;;;;;;;16.31;91.83;101237.28;5014059;28;20452;-48
2022/07/07 02:21:57;;;;;;;6.77;3.63;;;;;;;16.30;91.98;101232.97;5013190;28;20465;-48
2022/07/07 02:24:25;;;;;;;4.33;3.60;;;;;;;16.29;91.93;101234.00;5013728;28;20437;-47
2022/07/07 02:26:52;;;;;;;3.50;3.00;;;;;;;16.29;91.41;101234.84;5013817;28;20437;-46
2022/07/07 02:29:20;;;;;;;6.37;3.93;;;;;;;16.30;91.86;101238.34;5013583;28;20440;-49
2022/07/07 02:31:47;;;;;;;13.27;3.37;;;;;;;16.30;92.56;101235.66;5013637;28;20465;-47
2022/07/07 02:34:17;;;;;;;4.67;2.97;;;;;;;16.30;92.60;101236.50;5028163;28;20429;-46
2022/07/07 02:36:44;;;;;;;5.50;3.47;;;;;;;16.28;92.25;101235.88;5022203;28;20524;-46
2022/07/07 02:39:12;;;;;;;3.87;3.57;;;;;;;16.30;92.06;101236.50;5033240;28;20432;-49
2022/07/07 02:41:40;;;;;;;4.60;3.40;;;;;;;16.30;92.25;101238.34;5032628;28;20459;-48
2022/07/07 02:44:07;;;;;;;8.17;3.27;;;;;;;16.32;91.96;101241.63;5032769;28;20431;-47
2022/07/07 02:46:35;;;;;;;3.80;3.00;;;;;;;16.31;91.55;101224.66;5033343;28;20435;-50
2022/07/07 02:49:02;;;;;;;6.27;2.97;;;;;;;16.30;91.56;101230.28;5033094;28;20428;-47
2022/07/07 02:51:31;;;;;;;5.70;3.53;;;;;;;16.29;91.26;101231.31;5032509;28;20458;-47
2022/07/07 02:53:59;;;;;;;7.97;3.33;;;;;;;16.28;91.22;101227.78;5032787;28;20433;-49
2022/07/07 02:56:27;;;;;;;3.17;2.70;;;;;;;16.29;91.65;101225.94;5032809;28;20431;-50
2022/07/07 02:58:54;;;;;;;3.13;2.60;;;;;;;16.28;91.28;101218.91;5032903;28;20472;-49
2022/07/07 03:01:22;;;;;;;6.73;2.73;;;;;;;16.28;91.35;101224.28;5031985;28;20996;-48
2022/07/07 03:03:50;;;;;;;4.57;3.03;;;;;;;16.26;91.40;101213.75;5031728;28;20436;-46
2022/07/07 03:06:18;;;;;;;7.17;3.10;;;;;;;16.25;91.41;101220.16;5032704;28;20442;-50
2022/07/07 03:08:47;;;;;;;5.73;3.40;;;;;;;16.26;91.13;101221.00;5032758;28;20429;-46
2022/07/07 03:11:15;;;;;;;4.67;2.97;;;;;;;16.27;90.80;101215.41;5032427;28;20456;-51
2022/07/07 03:13:42;;;;;;;4.50;3.10;;;;;;;16.29;91.08;101217.84;5031861;28;20467;-50
2022/07/07 03:16:10;;;;;;;7.73;2.97;;;;;;;16.30;90.23;101212.28;5032483;28;20440;-50
2022/07/07 03:18:38;;;;;;;11.37;3.27;;;;;;;16.29;91.33;101209.78;5032493;28;20618;-48
2022/07/07 03:21:06;;;;;;;7.80;3.03;;;;;;;16.33;90.82;101211.81;5032444;28;20448;-47
2022/07/07 03:23:33;;;;;;;3.00;2.37;;;;;;;16.37;90.13;101206.78;5031653;28;20884;-48
2022/07/07 03:26:02;;;;;;;5.20;3.03;;;;;;;16.38;91.43;101192.28;5032297;28;20901;-48
2022/07/07 03:28:30;;;;;;;4.70;3.40;;;;;;;16.42;91.42;101193.50;5032389;28;20747;-47
2022/07/07 03:30:58;;;;;;;5.00;2.60;;;;;;;16.50;90.78;101198.59;5032196;28;21038;-46
2022/07/07 03:33:26;;;;;;;5.93;3.20;;;;;;;16.52;91.72;101207.25;5023352;28;20507;-49
2022/07/07 03:35:55;;;;;;;5.57;3.90;;;;;;;16.54;92.44;101205.22;5030701;28;20471;-47
2022/07/07 03:38:22;;;;;;;5.00;3.23;;;;;;;16.57;92.97;101199.38;5031975;28;20533;-48
2022/07/07 03:40:50;;;;;;;8.53;3.83;;;;;;;16.60;93.00;101204.31;5032198;28;20848;-50
2022/07/07 03:43:20;;;;;;;5.50;3.10;;;;;;;16.68;92.34;101204.00;5031236;28;20456;-49
2022/07/07 03:45:48;;;;;;;4.17;3.50;;;;;;;16.73;93.18;101198.75;5032152;28;20432;-46
2022/07/07 03:48:15;;;;;;;7.03;3.60;;;;;;;16.81;93.43;101197.63;5031995;28;20435;-49
2022/07/07 03:50:43;;;;;;;9.20;3.37;;;;;;;16.92;93.94;101202.25;5031789;28;20448;-46
2022/07/07 03:53:11;;;;;;;5.20;2.97;;;;;;;17.00;94.81;101200.06;5031252;28;20474;-46
2022/07/07 03:55:38;;;;;;;5.30;3.23;;;;;;;17.01;97.26;101204.41;5032040;28;20522;-49
2022/07/07 03:58:06;;;;;;;3.00;2.33;;;;;;;17.13;96.93;101202.59;5031888;28;20845;-49
2022/07/07 04:00:35;;;;;;;8.07;4.37;;;;;;;17.18;97.69;101196.50;5031629;28;20996;-50
2022/07/07 04:03:03;;;;;;;4.30;2.93;;;;;;;17.29;99.16;101203.00;5031264;28;20468;-52
2022/07/07 04:05:31;;;;;;;8.53;3.57;;;;;;;17.32;100.00;101199.84;5031703;28;20987;-50
2022/07/07 04:07:58;;;;;;;6.13;3.20;;;;;;;17.36;100.00;101204.53;5031755;28;20520;-53
2022/07/07 04:10:26;;;;;;;5.53;2.67;;;;;;;17.38;100.00;101204.31;5031777;28;20489;-51
2022/07/07 04:12:54;;;;;;;3.23;2.93;;;;;;;17.35;100.00;101205.59;5031071;28;20459;-52
2022/07/07 04:15:22;;;;;;;6.73;3.27;;;;;;;17.38;100.00;101199.72;5031367;28;20929;-52
2022/07/07 04:17:52;;;;;;;3.70;2.80;;;;;;;17.42;100.00;101203.63;5031324;28;21030;-49
2022/07/07 04:20:19;;;;;;;3.43;2.57;;;;;;;17.48;100.00;101196.47;5031696;28;20439;-53
2022/07/07 04:22:48;;;;;;;8.60;3.10;;;;;;;17.54;100.00;101199.13;5031023;28;20525;-48
2022/07/07 04:25:15;;;;;;;7.63;3.43;;;;;;;17.60;100.00;101206.28;5031614;28;20779;-51
2022/07/07 04:27:43;;;;;;;5.90;2.90;;;;;;;17.62;100.00;101209.56;5031534;28;20481;-49
2022/07/07 04:30:12;;;;;;;5.77;3.10;;;;;;;17.73;100.00;101207.13;5031427;28;20479;-50
2022/07/07 04:32:40;;;;;;;6.93;3.87;;;;;;;17.77;100.00;101211.00;5028819;28;20502;-48
2022/07/07 04:35:10;;;;;;;3.00;2.70;;;;;;;17.85;100.00;101191.78;5015736;28;20459;-51
2022/07/07 04:37:38;;;;;;;6.70;2.80;;;;;;;17.82;100.00;101211.13;5031588;28;20435;-50
2022/07/07 04:40:07;;;;;;;10.10;3.67;;;;;;;17.83;100.00;101212.78;5031260;28;20993;-54
2022/07/07 04:42:35;;;;;;;3.13;2.80;;;;;;;17.79;100.00;101209.72;5030606;28;20467;-46
2022/07/07 04:45:03;;;;;;;6.23;2.87;;;;;;;17.78;100.00;101208.06;5031189;28;20439;-49
2022/07/07 04:47:31;;;;;;;5.10;3.73;;;;;;;17.83;100.00;101212.78;5031564;28;20494;-49
2022/07/07 04:49:58;;;;;;;3.37;2.27;;;;;;;17.83;100.00;101207.38;5031486;28;20478;-49
2022/07/07 04:52:27;;;;;;;3.90;2.80;;;;;;;17.73;100.00;101215.22;5030643;28;20464;-51
2022/07/07 04:54:56;;;;;;;4.30;2.47;;;;;;;17.88;100.00;101211.03;5031322;28;20892;-50
2022/07/07 04:57:24;;;;;;;2.63;2.47;;;;;;;17.77;100.00;101211.81;5031057;28;20491;-50
2022/07/07 04:59:52;;;;;;;2.40;2.00;;;;;;;17.56;100.00;101215.06;5031114;28;20505;-49
2022/07/07 05:02:20;;;;;;;2.23;2.00;;;;;;;17.34;100.00;101217.44;5030305;28;20551;-50
2022/07/07 05:04:48;;;;;;;6.00;2.47;;;;;;;17.29;100.00;101221.88;5031370;28;20454;-48
2022/07/07 05:07:16;;;;;;;2.53;2.27;;;;;;;17.19;100.00;101217.03;5031132;28;20940;-52
2022/07/07 05:09:45;;;;;;;4.73;3.07;;;;;;;17.14;100.00;101224.97;5030990;28;20464;-48
2022/07/07 05:12:13;;;;;;;2.20;2.10;;;;;;;17.00;99.81;101235.09;5030322;28;20496;-53
2022/07/07 05:14:41;;;;;;;5.50;2.40;;;;;;;16.79;97.92;101234.72;5031292;28;20515;-52
2022/07/07 05:17:09;;;;;;;3.50;2.60;;;;;;;16.64;100.00;101236.97;5031219;28;20490;-51
2022/07/07 05:19:37;;;;;;;5.13;2.80;;;;;;;16.57;100.00;101237.91;5031101;28;20476;-50
2022/07/07 05:22:05;;;;;;;3.10;2.73;;;;;;;16.68;100.00;101235.50;5030386;28;20459;-50
2022/07/07 05:24:32;;;;;;;7.30;3.40;;;;;;;16.73;100.00;101230.25;5030870;28;20555;-55
2022/07/07 05:27:01;;;;;;;5.73;2.83;;;;;;;16.89;100.00;101238.56;5032939;28;20531;-51
2022/07/07 05:29:29;;;;;;;10.33;3.03;;;;;;;17.06;100.00;101236.88;5034754;28;20431;-50
2022/07/07 05:31:57;;;;;;;3.70;3.40;;;;;;;17.31;100.00;101242.16;5032115;28;20463;-54
2022/07/07 05:34:25;;;;;;;4.20;2.73;;;;;;;17.46;100.00;101257.91;5025917;28;20438;-50
2022/07/07 05:36:52;;;;;;;6.83;3.00;;;;;;;17.81;100.00;101253.47;5034399;28;20542;-49
2022/07/07 05:39:20;;;;;;;8.30;3.17;;;;;;;18.49;100.00;101269.16;5034293;28;20478;-49
2022/07/07 05:41:48;;;;;;;5.47;2.93;;;;;;;19.63;100.00;101270.97;5035651;28;20528;-51
2022/07/07 05:44:16;;;;;;;5.93;2.90;;;;;;;20.02;93.93;101270.03;5035758;28;20428;-53
2022/07/07 05:46:44;;;;;;;5.10;3.10;;;;;;;20.85;84.57;101260.97;5036513;28;20436;-53
2022/07/07 05:49:12;;;;;;;6.03;3.30;;;;;;;20.71;83.76;101267.84;5036778;28;20464;-47
2022/07/07 05:51:40;;;;;;;4.23;2.83;;;;;;;20.32;85.71;101267.84;5035775;28;20889;-52
2022/07/07 05:54:07;;;;;;;6.87;2.77;;;;;;;20.71;84.30;101275.97;5035458;28;20463;-56
2022/07/07 05:56:40;;;;;;;4.93;2.97;;;;;;;21.22;79.18;101275.59;5035815;28;20442;-49
2022/07/07 05:59:08;;;;;;;5.03;3.17;;;;;;;21.33;80.13;101281.94;5036486;28;20471;-50
2022/07/07 06:01:37;;;;;;;4.87;2.70;;;;;;;20.87;78.37;101285.97;5060045;22;20928;-49
2022/07/07 06:04:06;;;;;;;3.30;2.83;;;;;;;20.18;82.98;101287.34;5033506;28;20535;-46
2022/07/07 06:06:34;;;;;;;5.47;3.17;;;;;;;19.54;85.30;101288.66;5034180;28;20440;-46
2022/07/07 06:09:02;;;;;;;4.10;2.77;;;;;;;19.19;88.32;101296.88;5034021;28;20470;-48
2022/07/07 06:11:29;;;;;;;6.03;3.37;;;;;;;18.97;90.97;101301.28;5033399;28;20459;-50
2022/07/07 06:13:57;;;;;;;3.43;3.07;;;;;;;18.54;90.36;101307.94;5033692;28;20522;-47
2022/07/07 06:16:39;;;;;;;6.30;2.80;;;;;;;18.21;93.50;101304.94;5033815;28;20435;-46
2022/07/07 06:19:09;;;;;;;4.50;2.73;;;;;;;18.15;97.21;101314.78;5033932;28;20467;-45
2022/07/07 06:21:37;;;;;;;3.10;2.70;;;;;;;17.99;95.24;101318.16;5033306;28;20513;-48
2022/07/07 06:24:06;;;;;;;4.40;3.00;;;;;;;18.33;95.48;101313.03;5033337;28;20948;-45
2022/07/07 06:26:33;;;;;;;5.87;3.10;;;;;;;18.27;94.22;101331.00;5033522;28;20531;-46
2022/07/07 06:29:01;;;;;;;5.03;2.83;;;;;;;18.26;96.90;101329.34;5033383;28;20431;-49
2022/07/07 06:31:29;;;;;;;3.20;2.90;;;;;;;18.15;97.63;101325.59;5033026;28;20538;-45
2022/07/07 06:33:57;;;;;;;3.33;2.93;;;;;;;18.22;96.11;101322.75;5043683;28;20431;-46
2022/07/07 06:36:26;;;;;;;5.70;3.07;;;;;;;18.41;95.31;101331.59;5053299;28;20445;-50
2022/07/07 06:38:54;;;;;;;8.20;3.87;;;;;;;18.54;95.01;101326.84;5053072;28;20534;-46
2022/07/07 06:41:22;;;;;;;7.10;3.60;;;;;;;18.51;94.12;101313.81;5052540;28;20529;-47
2022/07/07 06:43:50;;;;;;;5.17;2.97;;;;;;;18.51;95.34;101324.59;5052924;28;21267;-48
2022/07/07 06:46:18;;;;;;;6.63;3.60;;;;;;;18.59;93.71;101318.84;5053167;28;20434;-47
2022/07/07 06:48:45;;;;;;;7.33;3.77;;;;;;;19.30;88.41;101315.78;5053270;28;20821;-48
2022/07/07 06:51:13;;;;;;;4.03;2.90;;;;;;;19.10;89.48;101325.34;5053017;28;20545;-50
2022/07/07 06:53:42;;;;;;;3.93;2.80;;;;;;;18.81;90.27;101323.66;5051999;28;21042;-49
2022/07/07 06:56:10;;;;;;;5.40;3.33;;;;;;;18.37;93.99;101343.94;5052821;28;20434;-49
2022/07/07 06:58:37;;;;;;;5.43;3.23;;;;;;;18.35;95.29;101344.16;5053035;28;20443;-48
2022/07/07 07:01:05;;;;;;;6.70;2.80;;;;;;;18.40;95.42;101351.56;5052539;28;20478;-45
2022/07/07 07:03:33;;;;;;;3.33;3.00;;;;;;;18.47;94.26;101355.78;5052046;28;20549;-46
2022/07/07 07:06:02;;;;;;;7.50;3.93;;;;;;;18.35;96.65;101354.13;5052758;28;20442;-46
2022/07/07 07:08:30;;;;;;;4.07;3.27;;;;;;;18.03;96.49;101362.53;5052465;28;20441;-46
2022/07/07 07:10:59;;;;;;;3.57;2.30;;;;;;;17.76;95.55;101360.44;5052554;28;20481;-46
2022/07/07 07:13:27;;;;;;;3.40;2.53;;;;;;;17.60;96.17;101368.09;5051776;28;20551;-46
2022/07/07 07:15:55;;;;;;;8.90;3.20;;;;;;;17.58;97.20;101367.50;5052576;28;20538;-46
2022/07/07 07:18:23;;;;;;;2.87;2.60;;;;;;;17.89;96.94;101369.16;5052448;28;20811;-46
2022/07/07 07:20:51;;;;;;;5.13;2.87;;;;;;;18.04;93.40;101371.44;5052261;28;20541;-49
2022/07/07 07:23:18;;;;;;;2.90;2.57;;;;;;;18.13;94.52;101373.56;5051482;28;20463;-46
2022/07/07 07:25:46;;;;;;;3.70;2.40;;;;;;;18.11;94.17;101381.09;5052568;28;20430;-46
2022/07/07 07:28:15;;;;;;;5.83;2.93;;;;;;;18.59;91.89;101372.88;5052254;28;20470;-46
2022/07/07 07:30:43;;;;;;;3.70;2.60;;;;;;;19.35;86.00;101369.16;5052277;28;20426;-46
2022/07/07 07:33:10;;;;;;;4.83;2.53;;;;;;;20.15;79.19;101363.66;5043599;28;20460;-47
2022/07/07 07:35:38;;;;;;;5.83;2.90;;;;;;;19.80;79.42;101359.25;5048213;28;20433;-47
2022/07/07 07:38:05;;;;;;;4.37;2.40;;;;;;;19.60;80.76;101379.69;5052346;28;20804;-49
2022/07/07 07:40:33;;;;;;;4.93;3.00;;;;;;;19.17;84.54;101375.56;5051947;28;20471;-46
2022/07/07 07:43:01;;;;;;;3.33;2.70;;;;;;;18.59;90.36;101388.25;5051350;28;20461;-46
2022/07/07 07:45:30;;;;;;;4.77;3.00;;;;;;;18.37;92.36;101376.34;5052145;28;20457;-46
2022/07/07 07:47:58;;;;;;;4.57;3.17;;;;;;;18.34;92.38;101379.50;5051903;28;20439;-49
2022/07/07 07:50:25;;;;;;;4.57;3.10;;;;;;;18.28;90.29;101383.94;5051287;28;20471;-48
2022/07/07 07:52:53;;;;;;;7.60;3.00;;;;;;;18.99;87.63;101380.28;5051069;28;20462;-46
2022/07/07 07:55:21;;;;;;;6.33;3.27;;;;;;;19.20;85.59;101387.78;5051955;28;20531;-49
2022/07/07 07:57:50;;;;;;;2.70;2.50;;;;;;;19.17;80.46;101385.53;5051909;28;20480;-46
2022/07/07 08:00:19;;;;;;;3.17;2.97;;;;;;;19.16;81.45;101390.13;5051853;28;20481;-46
2022/07/07 08:02:48;;;;;;;4.67;2.80;;;;;;;18.89;81.48;101401.66;5050717;28;20467;-51
2022/07/07 08:05:18;;;;;;;3.93;2.70;;;;;;;18.85;83.10;101386.94;5051991;28;20539;-46
2022/07/07 08:07:46;;;;;;;3.60;3.33;;;;;;;18.74;85.26;101396.72;5051797;28;20435;-45
2022/07/07 08:10:16;;;;;;;3.13;2.87;;;;;;;18.89;85.02;101410.59;5051641;28;20426;-47
2022/07/07 08:12:45;;;;;;;2.83;2.43;;;;;;;18.74;85.87;101410.22;5050965;28;20550;-47
2022/07/07 08:15:13;;;;;;;4.80;2.50;;;;;;;18.63;86.15;101401.06;5051492;28;21071;-46
2022/07/07 08:17:41;;;;;;;4.07;3.63;;;;;;;18.47;86.90;101417.09;5051770;28;20534;-47
2022/07/07 08:20:10;;;;;;;9.20;3.40;;;;;;;18.47;86.18;101423.31;5037216;28;20973;-46
2022/07/07 08:22:38;;;;;;;4.93;3.00;;;;;;;18.59;88.12;101418.78;5010954;28;21052;-47
2022/07/07 08:25:07;;;;;;;3.97;2.90;;;;;;;18.74;86.48;101411.06;5010499;28;20437;-47
2022/07/07 08:27:34;;;;;;;5.77;3.10;;;;;;;19.01;85.51;101416.81;5011792;28;20445;-48
2022/07/07 08:30:02;;;;;;;3.03;2.73;;;;;;;19.09;81.11;101424.56;5012265;28;20515;-46
2022/07/07 08:32:30;;;;;;;3.37;2.93;;;;;;;19.32;80.38;101416.41;5024513;28;20473;-46
2022/07/07 08:34:57;;;;;;;3.73;2.80;;;;;;;19.62;78.53;101418.16;5042223;28;20427;-47
2022/07/07 08:37:26;;;;;;;6.37;2.87;;;;;;;19.67;75.11;101419.09;5051263;28;20442;-48
2022/07/07 08:39:54;;;;;;;3.70;3.13;;;;;;;20.07;76.12;101415.53;5051364;28;20437;-48
2022/07/07 08:42:22;;;;;;;4.17;3.13;;;;;;;20.80;73.56;101416.25;5050343;28;20986;-46
2022/07/07 08:44:50;;;;;;;3.53;3.07;;;;;;;20.57;68.66;101413.72;5051487;28;20429;-45
2022/07/07 08:47:17;;;;;;;3.23;3.03;;;;;;;20.38;68.80;101421.25;5051299;28;20466;-48
2022/07/07 08:49:45;;;;;;;4.00;3.70;;;;;;;20.77;68.69;101432.19;5051347;28;20441;-46
2022/07/07 08:52:14;;;;;;;3.17;2.97;;;;;;;20.28;65.86;101417.56;5050502;28;20458;-45
2022/07/07 08:54:44;;;;;;;3.47;3.27;;;;;;;20.14;65.85;101445.97;5051207;28;20431;-48
2022/07/07 08:57:11;;;;;;;4.57;3.83;;;;;;;20.41;67.26;101433.50;5051109;28;21241;-47
2022/07/07 08:59:39;;;;;;;4.47;3.70;;;;;;;20.29;67.37;101438.97;5051334;28;20431;-46
2022/07/07 09:02:09;;;;;;;5.20;3.80;;;;;;;20.42;68.96;101437.84;5052306;28;20998;-46
2022/07/07 09:04:37;;;;;;;6.00;3.87;;;;;;;20.34;70.25;101444.47;5055099;28;20513;-50
2022/07/07 09:07:06;;;;;;;3.87;3.53;;;;;;;20.07;71.98;101446.09;5054922;28;20435;-45
2022/07/07 09:09:44;;;;;;;3.63;3.43;;;;;;;19.42;72.42;101453.72;5055214;28;20450;-47
2022/07/07 09:12:14;;;;;;;3.30;3.20;;;;;;;19.22;75.62;101470.28;5054092;28;20982;-45
2022/07/07 09:14:44;;;;;;;3.70;3.53;;;;;;;18.93;79.20;101471.22;5054756;28;20928;-45
2022/07/07 09:17:19;;;;;;;3.67;3.03;;;;;;;18.65;81.56;101487.25;5054743;28;20441;-47
2022/07/07 09:19:59;;;;;;;3.20;3.00;;;;;;;18.75;82.53;101474.03;5054679;28;20418;-46
2022/07/07 09:22:45;;;;;;;6.40;3.30;;;;;;;18.85;81.24;101476.97;5054109;28;20462;-46
2022/07/07 09:25:14;;;;;;;2.80;2.70;;;;;;;19.28;81.87;101482.88;5054751;28;20422;-47
2022/07/07 09:27:56;;;;;;;3.80;3.50;;;;;;;19.71;78.10;101476.25;5054705;28;20517;-45
2022/07/07 09:30:32;;;;;;;3.30;3.10;;;;;;;19.81;75.68;101482.69;5054407;28;20438;-46
2022/07/07 09:33:04;;;;;;;2.97;2.63;;;;;;;19.59;75.44;101483.59;5046620;28;20467;-45
2022/07/07 09:38:22;;;;;;;3.23;2.87;;;;;;;20.18;71.50;101485.06;5054340;28;20470;-47
2022/07/07 09:40:58;;;;;;;2.90;2.60;;;;;;;20.24;71.68;101494.91;5053300;28;20470;-48
2022/07/07 09:43:26;;;;;;;3.03;2.93;;;;;;;20.38;71.47;101480.03;5053524;28;20458;-47
2022/07/07 09:46:22;;;;;;;3.33;3.00;;;;;;;20.06;72.09;101481.56;5054259;28;20938;-45
2022/07/07 09:48:52;;;;;;;3.00;2.90;;;;;;;19.83;74.42;101491.38;5008224;28;20446;-45
2022/07/07 09:51:23;;;;;;;2.77;2.57;;;;;;;19.41;77.58;101502.66;5054085;28;20542;-45
2022/07/07 09:54:03;;;;;;;4.50;2.33;;;;;;;19.00;81.42;101506.22;5053748;28;20447;-45
2022/07/07 09:56:35;;;;;;;2.53;2.30;;;;;;;18.33;90.97;101520.97;5054283;28;20661;-46
2022/07/07 09:59:04;;;;;;;5.97;2.70;;;;;;;17.96;97.03;101522.88;5053940;28;20431;-46
2022/07/07 10:01:34;;;;;;;2.67;2.47;;;;;;;17.69;98.96;101530.44;5053094;28;21017;-46
2022/07/07 10:04:04;;;;;;;4.37;2.83;;;;;;;17.57;96.20;101540.31;5053802;28;20509;-46
2022/07/07 10:06:34;;;;;;;2.80;2.57;;;;;;;17.71;95.39;101527.53;5054043;28;20500;-45
2022/07/07 10:09:05;;;;;;;3.90;2.47;;;;;;;17.95;95.92;101523.94;5053699;28;20437;-47
2022/07/07 10:11:39;;;;;;;5.63;2.00;;;;;;;18.13;93.38;101523.91;5053182;28;20474;-44
2022/07/07 10:14:13;;;;;;;2.73;2.53;;;;;;;18.33;91.16;101532.59;5053259;28;20437;-48
2022/07/07 10:16:42;;;;;;;3.00;2.70;;;;;;;18.07;89.75;101530.25;5053959;28;20421;-46
2022/07/07 10:19:11;;;;;;;6.50;2.80;;;;;;;18.09;90.79;101537.06;5053729;28;20439;-45
2022/07/07 10:21:42;;;;;;;7.03;3.23;;;;;;;17.83;91.98;101550.84;5053064;28;20479;-46
2022/07/07 10:24:10;;;;;;;5.80;3.30;;;;;;;17.69;92.90;101555.56;5053436;28;20533;-46
2022/07/07 10:26:41;;;;;;;5.50;3.03;;;;;;;17.47;92.05;101545.41;5053283;28;20943;-46
2022/07/07 10:29:10;;;;;;;11.37;3.23;;;;;;;17.47;93.09;101556.97;5053418;28;20928;-45
2022/07/07 10:31:38;;;;;;;7.67;3.00;;;;;;;17.64;92.92;101562.69;5050203;28;20538;-45
2022/07/07 10:34:08;;;;;;;5.53;3.30;;;;;;;17.83;90.11;101571.63;5031965;28;20424;-50
2022/07/07 10:37:00;;;;;;;7.50;3.83;;;;;;;17.94;83.37;101579.78;5033458;28;20530;-45
2022/07/07 10:39:33;;;;;;;3.30;3.00;;;;;;;18.01;83.98;101569.72;5033680;28;20439;-46
2022/07/07 10:42:07;;;;;;;11.33;3.90;;;;;;;18.33;84.27;101583.06;5032732;28;20908;-45
2022/07/07 10:44:37;;;;;;;8.77;4.53;;;;;;;18.03;82.07;101586.53;5033399;28;20435;-46
2022/07/07 10:47:28;;;;;;;11.30;3.73;;;;;;;17.75;85.08;101605.09;5033418;28;20439;-45
2022/07/07 10:49:57;;;;;;;7.87;4.67;;;;;;;17.44;82.89;101600.56;5032656;28;20545;-45
2022/07/07 10:52:26;;;;;;;10.20;3.90;;;;;;;17.43;84.36;101607.03;5032483;28;20470;-48
2022/07/07 10:54:58;;;;;;;8.13;4.13;;;;;;;17.42;82.98;101608.06;5033013;28;20428;-47
2022/07/07 10:57:29;;;;;;;15.83;4.63;;;;;;;17.55;83.73;101604.47;5033028;28;20940;-50
2022/07/07 11:00:15;;;;;;;6.70;4.70;;;;;;;17.42;80.21;101612.63;5032861;28;20794;-46
2022/07/07 11:02:47;;;;;;;18.03;5.40;;;;;;;17.51;79.69;101606.75;5031432;28;20554;-45
2022/07/07 11:05:32;;;;;;;15.27;6.13;;;;;;;17.34;78.58;101616.44;5032794;28;20490;-45
2022/07/07 11:08:08;;;;;;;13.27;5.87;;;;;;;17.43;80.45;101620.50;5032851;28;20514;-47
2022/07/07 11:11:00;;;;;;;11.97;5.07;;;;;;;17.59;75.80;101613.78;5032836;28;20789;-44
2022/07/07 11:13:35;;;;;;;9.67;4.87;;;;;;;17.76;75.76;101624.81;5032058;28;21087;-45
2022/07/07 11:16:24;;;;;;;12.17;5.53;;;;;;;17.93;74.22;101623.19;5032729;28;20435;-46
2022/07/07 11:18:57;;;;;;;8.43;5.60;;;;;;;18.11;71.79;101621.31;5025996;28;20444;-45
2022/07/07 11:21:34;;;;;;;19.93;6.90;;;;;;;18.05;72.30;101630.31;5024890;28;20452;-45
2022/07/07 11:24:13;;;;;;;11.20;5.40;;;;;;;18.09;72.15;101612.63;5011504;28;20874;-46
2022/07/07 11:26:41;;;;;;;9.00;5.13;;;;;;;17.97;73.78;101624.38;5012792;28;20432;-44
2022/07/07 11:29:11;;;;;;;13.00;5.40;;;;;;;17.68;73.84;101631.31;5012410;28;20436;-46
2022/07/07 11:31:38;;;;;;;10.60;4.80;;;;;;;17.69;76.05;101632.97;5011365;28;20974;-46
2022/07/07 11:34:06;;;;;;;14.87;5.13;;;;;;;17.84;76.11;101632.59;5032064;28;20467;-48
2022/07/07 11:36:34;;;;;;;17.93;5.77;;;;;;;17.97;70.03;101641.41;5032332;28;20442;-46